TAF LFMT
LFMT 090200Z 0903/1003 30012KT CAVOK BECMG 0918/0921 30005KT BECMG 1000/1001 RA OVC008 SCT015CB=
METAR LFMT
LFMT 090730Z AUTO 31010KT CAVOK 06/M01 Q1011 NOSIG=
LFMT 090700Z AUTO 31011KT CAVOK 06/M01 Q1011 NOSIG=
LFMT 090630Z AUTO 30013KT CAVOK 07/M01 Q1010 NOSIG=
LFMT 090600Z AUTO 28008KT 250V310 CAVOK 06/M01 Q1010 NOSIG=
LFMT 090530Z AUTO 28008KT 250V310 CAVOK 07/M01 Q1010 NOSIG=
WC LFMT
WS LFMT
WV LFMT